sensor_id;sensor_type;location;lat;lon;timestamp;pressure;altitude;pressure_sealevel;temperature;humidity
4398;BME280;2213;49.720;7.296;2023-01-04T00:00:40;99220.81;;;7.53;100.00
4398;BME280;2213;49.720;7.296;2023-01-04T00:03:11;99223.84;;;7.58;100.00
4398;BME280;2213;49.720;7.296;2023-01-04T00:05:41;99219.59;;;7.57;100.00
4398;BME280;2213;49.720;7.296;2023-01-04T00:08:12;99217.53;;;7.61;100.00
4398;BME280;2213;49.720;7.296;2023-01-04T00:10:40;99209.88;;;7.59;100.00
4398;BME280;2213;49.720;7.296;2023-01-04T00:13:10;99209.31;;;7.56;100.00
4398;BME280;2213;49.720;7.296;2023-01-04T00:15:39;99206.84;;;7.54;100.00
4398;BME280;2213;49.720;7.296;2023-01-04T00:18:31;99218.91;;;7.55;100.00
4398;BME280;2213;49.720;7.296;2023-01-04T00:21:11;99212.06;;;7.54;100.00
4398;BME280;2213;49.720;7.296;2023-01-04T00:23:45;99217.53;;;7.51;100.00
4398;BME280;2213;49.720;7.296;2023-01-04T00:26:18;99224.69;;;7.49;100.00
4398;BME280;2213;49.720;7.296;2023-01-04T00:28:52;99221.09;;;7.50;100.00
4398;BME280;2213;49.720;7.296;2023-01-04T00:31:23;99221.09;;;7.50;100.00
4398;BME280;2213;49.720;7.296;2023-01-04T00:33:55;99214.28;;;7.49;100.00
4398;BME280;2213;49.720;7.296;2023-01-04T00:36:25;99210.97;;;7.47;100.00
4398;BME280;2213;49.720;7.296;2023-01-04T00:38:58;99207.97;;;7.42;100.00
4398;BME280;2213;49.720;7.296;2023-01-04T00:41:42;99204.66;;;7.40;100.00
4398;BME280;2213;49.720;7.296;2023-01-04T00:44:29;99202.50;;;7.45;100.00
4398;BME280;2213;49.720;7.296;2023-01-04T00:47:01;99193.97;;;7.43;100.00
4398;BME280;2213;49.720;7.296;2023-01-04T00:49:32;99193.03;;;7.44;100.00
4398;BME280;2213;49.720;7.296;2023-01-04T00:52:00;99186.06;;;7.45;100.00
4398;BME280;2213;49.720;7.296;2023-01-04T00:54:32;99179.06;;;7.45;100.00
4398;BME280;2213;49.720;7.296;2023-01-04T00:57:02;99176.75;;;7.42;100.00
4398;BME280;2213;49.720;7.296;2023-01-04T00:59:35;99171.81;;;7.39;100.00
4398;BME280;2213;49.720;7.296;2023-01-04T01:02:05;99158.94;;;7.38;100.00
4398;BME280;2213;49.720;7.296;2023-01-04T01:04:34;99164.81;;;7.40;100.00
4398;BME280;2213;49.720;7.296;2023-01-04T01:07:03;99155.53;;;7.37;100.00
4398;BME280;2213;49.720;7.296;2023-01-04T01:09:35;99147.44;;;7.40;100.00
4398;BME280;2213;49.720;7.296;2023-01-04T01:12:06;99146.06;;;7.36;100.00
4398;BME280;2213;49.720;7.296;2023-01-04T01:14:35;99146.06;;;7.36;100.00
4398;BME280;2213;49.720;7.296;2023-01-04T01:17:06;99148.66;;;7.36;100.00
4398;BME280;2213;49.720;7.296;2023-01-04T01:19:37;99145.50;;;7.33;100.00
4398;BME280;2213;49.720;7.296;2023-01-04T01:22:07;99142.78;;;7.34;100.00
4398;BME280;2213;49.720;7.296;2023-01-04T01:24:39;99143.47;;;7.36;100.00
4398;BME280;2213;49.720;7.296;2023-01-04T01:27:09;99147.72;;;7.37;100.00
4398;BME280;2213;49.720;7.296;2023-01-04T01:29:39;99147.59;;;7.39;100.00
4398;BME280;2213;49.720;7.296;2023-01-04T01:32:09;99145.66;;;7.41;100.00
4398;BME280;2213;49.720;7.296;2023-01-04T01:34:40;99139.25;;;7.35;100.00
4398;BME280;2213;49.720;7.296;2023-01-04T01:37:11;99146.06;;;7.36;100.00
4398;BME280;2213;49.720;7.296;2023-01-04T01:39:42;99135.66;;;7.36;100.00
4398;BME280;2213;49.720;7.296;2023-01-04T01:42:19;99135.00;;;7.34;100.00
4398;BME280;2213;49.720;7.296;2023-01-04T01:45:02;99141.56;;;7.38;100.00
4398;BME280;2213;49.720;7.296;2023-01-04T01:47:43;99138.97;;;7.38;100.00
4398;BME280;2213;49.720;7.296;2023-01-04T01:50:23;99120.03;;;7.36;100.00
4398;BME280;2213;49.720;7.296;2023-01-04T01:52:57;99118.25;;;7.37;100.00
4398;BME280;2213;49.720;7.296;2023-01-04T01:55:32;99119.50;;;7.33;100.00
4398;BME280;2213;49.720;7.296;2023-01-04T01:58:07;99126.34;;;7.34;100.00
4398;BME280;2213;49.720;7.296;2023-01-04T02:00:39;99113.50;;;7.32;100.00
4398;BME280;2213;49.720;7.296;2023-01-04T02:03:15;99109.91;;;7.33;100.00
4398;BME280;2213;49.720;7.296;2023-01-04T02:05:50;99112.13;;;7.38;100.00
4398;BME280;2213;49.720;7.296;2023-01-04T02:08:23;99103.47;;;7.37;100.00
4398;BME280;2213;49.720;7.296;2023-01-04T02:10:55;99098.28;;;7.37;100.00
4398;BME280;2213;49.720;7.296;2023-01-04T02:13:29;99091.03;;;7.31;100.00
4398;BME280;2213;49.720;7.296;2023-01-04T02:16:25;99092.00;;;7.30;100.00
4398;BME280;2213;49.720;7.296;2023-01-04T02:19:13;99090.50;;;7.28;100.00
4398;BME280;2213;49.720;7.296;2023-01-04T02:22:32;99097.06;;;7.32;100.00
4398;BME280;2213;49.720;7.296;2023-01-04T02:25:46;99089.09;;;7.33;100.00
4398;BME280;2213;49.720;7.296;2023-01-04T02:28:42;99089.09;;;7.33;100.00
4398;BME280;2213;49.720;7.296;2023-01-04T02:31:29;99084.44;;;7.37;100.00
4398;BME280;2213;49.720;7.296;2023-01-04T02:34:12;99074.03;;;7.37;100.00
4398;BME280;2213;49.720;7.296;2023-01-04T02:36:56;99071.59;;;7.35;100.00
4398;BME280;2213;49.720;7.296;2023-01-04T02:39:42;99069.13;;;7.34;100.00
4398;BME280;2213;49.720;7.296;2023-01-04T02:42:27;99065.41;;;7.36;100.00
4398;BME280;2213;49.720;7.296;2023-01-04T02:45:18;99051.72;;;7.34;100.00
4398;BME280;2213;49.720;7.296;2023-01-04T02:47:49;99059.81;;;7.31;100.00
4398;BME280;2213;49.720;7.296;2023-01-04T02:50:47;99052.69;;;7.33;100.00
4398;BME280;2213;49.720;7.296;2023-01-04T02:53:23;99038.06;;;7.32;100.00
4398;BME280;2213;49.720;7.296;2023-01-04T02:56:10;99030.25;;;7.32;100.00
4398;BME280;2213;49.720;7.296;2023-01-04T02:59:32;99035.47;;;7.32;100.00
4398;BME280;2213;49.720;7.296;2023-01-04T03:02:26;99031.59;;;7.36;100.00
4398;BME280;2213;49.720;7.296;2023-01-04T03:05:23;99027.38;;;7.35;100.00
4398;BME280;2213;49.720;7.296;2023-01-04T03:08:23;99028.03;;;7.37;100.00
4398;BME280;2213;49.720;7.296;2023-01-04T03:11:01;99015.69;;;7.39;100.00
4398;BME280;2213;49.720;7.296;2023-01-04T03:13:39;99020.88;;;7.39;100.00
4398;BME280;2213;49.720;7.296;2023-01-04T03:16:17;99013.78;;;7.41;100.00
4398;BME280;2213;49.720;7.296;2023-01-04T03:18:53;99005.97;;;7.41;100.00
4398;BME280;2213;49.720;7.296;2023-01-04T03:21:27;98999.00;;;7.42;100.00
4398;BME280;2213;49.720;7.296;2023-01-04T03:23:58;99008.56;;;7.41;100.00
4398;BME280;2213;49.720;7.296;2023-01-04T03:26:50;98997.34;;;7.41;100.00
4398;BME280;2213;49.720;7.296;2023-01-04T03:29:56;98997.63;;;7.38;100.00
4398;BME280;2213;49.720;7.296;2023-01-04T03:33:00;98994.63;;;7.42;100.00
4398;BME280;2213;49.720;7.296;2023-01-04T03:35:53;98984.03;;;7.44;100.00
4398;BME280;2213;49.720;7.296;2023-01-04T03:38:33;98979.97;;;7.41;100.00
4398;BME280;2213;49.720;7.296;2023-01-04T03:41:28;98977.06;;;7.44;100.00
4398;BME280;2213;49.720;7.296;2023-01-04T03:44:26;98985.53;;;7.46;100.00
4398;BME280;2213;49.720;7.296;2023-01-04T03:47:21;98975.94;;;7.47;100.00
4398;BME280;2213;49.720;7.296;2023-01-04T03:50:15;98983.34;;;7.51;100.00
4398;BME280;2213;49.720;7.296;2023-01-04T03:52:49;98976.47;;;7.50;100.00
4398;BME280;2213;49.720;7.296;2023-01-04T03:55:22;98978.78;;;7.53;100.00
4398;BME280;2213;49.720;7.296;2023-01-04T03:57:53;98977.84;;;7.54;100.00
4398;BME280;2213;49.720;7.296;2023-01-04T04:00:23;98977.84;;;7.54;100.00
4398;BME280;2213;49.720;7.296;2023-01-04T04:02:57;98971.97;;;7.52;100.00
4398;BME280;2213;49.720;7.296;2023-01-04T04:05:38;98972.91;;;7.51;100.00
4398;BME280;2213;49.720;7.296;2023-01-04T04:08:25;98964.16;;;7.52;100.00
4398;BME280;2213;49.720;7.296;2023-01-04T04:10:59;98959.91;;;7.51;100.00
4398;BME280;2213;49.720;7.296;2023-01-04T04:13:50;98960.72;;;7.52;100.00
4398;BME280;2213;49.720;7.296;2023-01-04T04:16:20;98957.84;;;7.55;100.00
4398;BME280;2213;49.720;7.296;2023-01-04T04:18:50;98960.31;;;7.56;100.00
4398;BME280;2213;49.720;7.296;2023-01-04T04:21:21;98948.25;;;7.55;100.00
4398;BME280;2213;49.720;7.296;2023-01-04T04:23:54;98944.94;;;7.53;100.00
4398;BME280;2213;49.720;7.296;2023-01-04T04:26:26;98948.25;;;7.55;100.00
4398;BME280;2213;49.720;7.296;2023-01-04T04:28:56;98955.09;;;7.56;100.00
4398;BME280;2213;49.720;7.296;2023-01-04T04:31:26;98946.31;;;7.57;100.00
4398;BME280;2213;49.720;7.296;2023-01-04T04:33:58;98942.88;;;7.57;100.00
4398;BME280;2213;49.720;7.296;2023-01-04T04:36:28;98945.47;;;7.57;100.00
4398;BME280;2213;49.720;7.296;2023-01-04T04:38:58;98948.78;;;7.59;100.00
4398;BME280;2213;49.720;7.296;2023-01-04T04:41:29;98947.66;;;7.62;100.00
4398;BME280;2213;49.720;7.296;2023-01-04T04:44:11;98940.69;;;7.62;100.00
4398;BME280;2213;49.720;7.296;2023-01-04T04:46:42;98940.16;;;7.58;100.00
4398;BME280;2213;49.720;7.296;2023-01-04T04:49:13;98944.41;;;7.59;100.00
4398;BME280;2213;49.720;7.296;2023-01-04T04:51:44;98930.25;;;7.62;100.00
4398;BME280;2213;49.720;7.296;2023-01-04T04:54:17;98935.06;;;7.57;100.00
4398;BME280;2213;49.720;7.296;2023-01-04T04:56:50;98937.84;;;7.55;100.00
4398;BME280;2213;49.720;7.296;2023-01-04T04:59:20;98942.63;;;7.60;100.00
4398;BME280;2213;49.720;7.296;2023-01-04T05:01:48;98937.41;;;7.60;100.00
4398;BME280;2213;49.720;7.296;2023-01-04T05:04:17;98927.00;;;7.60;100.00
4398;BME280;2213;49.720;7.296;2023-01-04T05:06:48;98925.34;;;7.59;100.00
4398;BME280;2213;49.720;7.296;2023-01-04T05:09:18;98935.75;;;7.59;100.00
4398;BME280;2213;49.720;7.296;2023-01-04T05:11:48;98922.22;;;7.55;100.00
4398;BME280;2213;49.720;7.296;2023-01-04T05:14:36;98932.22;;;7.60;100.00
4398;BME280;2213;49.720;7.296;2023-01-04T05:17:05;98931.91;;;7.63;100.00
4398;BME280;2213;49.720;7.296;2023-01-04T05:19:35;98940.50;;;7.64;100.00
4398;BME280;2213;49.720;7.296;2023-01-04T05:22:07;98929.16;;;7.65;100.00
4398;BME280;2213;49.720;7.296;2023-01-04T05:24:37;98933.69;;;7.63;100.00
4398;BME280;2213;49.720;7.296;2023-01-04T05:27:08;98931.50;;;7.58;100.00
4398;BME280;2213;49.720;7.296;2023-01-04T05:29:37;98932.22;;;7.60;100.00
4398;BME280;2213;49.720;7.296;2023-01-04T05:32:24;98937.13;;;7.63;100.00
4398;BME280;2213;49.720;7.296;2023-01-04T05:34:55;98931.75;;;7.65;100.00
4398;BME280;2213;49.720;7.296;2023-01-04T05:37:24;98922.75;;;7.59;100.00
4398;BME280;2213;49.720;7.296;2023-01-04T05:39:53;98928.78;;;7.59;100.00
4398;BME280;2213;49.720;7.296;2023-01-04T05:42:24;98937.25;;;7.62;100.00
4398;BME280;2213;49.720;7.296;2023-01-04T05:44:55;98928.09;;;7.57;100.00
4398;BME280;2213;49.720;7.296;2023-01-04T05:47:27;98923.06;;;7.56;100.00
4398;BME280;2213;49.720;7.296;2023-01-04T05:49:56;98922.22;;;7.55;100.00
4398;BME280;2213;49.720;7.296;2023-01-04T05:52:25;98912.63;;;7.56;100.00
4398;BME280;2213;49.720;7.296;2023-01-04T05:54:55;98929.06;;;7.56;100.00
4398;BME280;2213;49.720;7.296;2023-01-04T05:57:27;98915.38;;;7.54;100.00
4398;BME280;2213;49.720;7.296;2023-01-04T05:59:56;98907.97;;;7.59;100.00
4398;BME280;2213;49.720;7.296;2023-01-04T06:02:29;98913.47;;;7.56;100.00
4398;BME280;2213;49.720;7.296;2023-01-04T06:04:59;98906.91;;;7.52;100.00
4398;BME280;2213;49.720;7.296;2023-01-04T06:07:30;98896.09;;;7.47;100.00
4398;BME280;2213;49.720;7.296;2023-01-04T06:09:59;98896.19;;;7.55;100.00
4398;BME280;2213;49.720;7.296;2023-01-04T06:12:31;98900.44;;;7.56;100.00
4398;BME280;2213;49.720;7.296;2023-01-04T06:15:01;98893.44;;;7.57;100.00
4398;BME280;2213;49.720;7.296;2023-01-04T06:17:31;98895.38;;;7.55;100.00
4398;BME280;2213;49.720;7.296;2023-01-04T06:20:00;98893.59;;;7.55;100.00
4398;BME280;2213;49.720;7.296;2023-01-04T06:22:30;98899.47;;;7.57;100.00
4398;BME280;2213;49.720;7.296;2023-01-04T06:25:00;98896.72;;;7.59;100.00
4398;BME280;2213;49.720;7.296;2023-01-04T06:27:32;98894.25;;;7.57;100.00
4398;BME280;2213;49.720;7.296;2023-01-04T06:30:01;98901.09;;;7.58;100.00
4398;BME280;2213;49.720;7.296;2023-01-04T06:32:31;98892.34;;;7.59;100.00
4398;BME280;2213;49.720;7.296;2023-01-04T06:35:02;98903.84;;;7.57;100.00
4398;BME280;2213;49.720;7.296;2023-01-04T06:37:33;98884.16;;;7.54;100.00
4398;BME280;2213;49.720;7.296;2023-01-04T06:40:05;98885.25;;;7.52;100.00
4398;BME280;2213;49.720;7.296;2023-01-04T06:42:37;98882.50;;;7.53;100.00
4398;BME280;2213;49.720;7.296;2023-01-04T06:45:15;98878.28;;;7.52;100.00
4398;BME280;2213;49.720;7.296;2023-01-04T06:47:45;98877.16;;;7.55;100.00
4398;BME280;2213;49.720;7.296;2023-01-04T06:50:16;98888.41;;;7.55;100.00
4398;BME280;2213;49.720;7.296;2023-01-04T06:52:44;98883.72;;;7.59;100.00
4398;BME280;2213;49.720;7.296;2023-01-04T06:55:14;98869.06;;;7.58;100.00
4398;BME280;2213;49.720;7.296;2023-01-04T06:57:45;98871.53;;;7.59;100.00
4398;BME280;2213;49.720;7.296;2023-01-04T07:00:16;98866.63;;;7.56;100.00
4398;BME280;2213;49.720;7.296;2023-01-04T07:02:47;98852.25;;;7.52;100.00
4398;BME280;2213;49.720;7.296;2023-01-04T07:05:36;98847.72;;;7.54;100.00
4398;BME280;2213;49.720;7.296;2023-01-04T07:08:07;98841.56;;;7.55;100.00
4398;BME280;2213;49.720;7.296;2023-01-04T07:10:36;98838.25;;;7.53;100.00
4398;BME280;2213;49.720;7.296;2023-01-04T07:13:08;98844.16;;;7.55;100.00
4398;BME280;2213;49.720;7.296;2023-01-04T07:15:38;98852.63;;;7.57;100.00
4398;BME280;2213;49.720;7.296;2023-01-04T07:18:08;98849.19;;;7.57;100.00
4398;BME280;2213;49.720;7.296;2023-01-04T07:20:39;98837.69;;;7.59;100.00
4398;BME280;2213;49.720;7.296;2023-01-04T07:23:09;98834.78;;;7.63;100.00
4398;BME280;2213;49.720;7.296;2023-01-04T07:25:39;98838.00;;;7.56;100.00
4398;BME280;2213;49.720;7.296;2023-01-04T07:28:12;98835.22;;;7.58;100.00
4398;BME280;2213;49.720;7.296;2023-01-04T07:31:05;98836.69;;;7.60;100.00
4398;BME280;2213;49.720;7.296;2023-01-04T07:33:35;98831.13;;;7.55;100.00
4398;BME280;2213;49.720;7.296;2023-01-04T07:36:07;98835.22;;;7.58;100.00
4398;BME280;2213;49.720;7.296;2023-01-04T07:38:37;98837.81;;;7.58;100.00
4398;BME280;2213;49.720;7.296;2023-01-04T07:41:08;98836.88;;;7.59;100.00
4398;BME280;2213;49.720;7.296;2023-01-04T07:43:40;98826.28;;;7.60;100.00
4398;BME280;2213;49.720;7.296;2023-01-04T07:46:10;98835.09;;;7.59;100.00
4398;BME280;2213;49.720;7.296;2023-01-04T07:48:41;98838.34;;;7.62;100.00
4398;BME280;2213;49.720;7.296;2023-01-04T07:51:10;98840.00;;;7.63;100.00
4398;BME280;2213;49.720;7.296;2023-01-04T07:53:40;98828.59;;;7.64;100.00
4398;BME280;2213;49.720;7.296;2023-01-04T07:56:11;98829.59;;;7.63;100.00
4398;BME280;2213;49.720;7.296;2023-01-04T07:58:47;98840.28;;;7.59;100.00
4398;BME280;2213;49.720;7.296;2023-01-04T08:01:18;98839.16;;;7.62;100.00
4398;BME280;2213;49.720;7.296;2023-01-04T08:03:49;98827.13;;;7.61;100.00
4398;BME280;2213;49.720;7.296;2023-01-04T08:06:21;98821.59;;;7.64;100.00
4398;BME280;2213;49.720;7.296;2023-01-04T08:08:51;98824.06;;;7.66;100.00
4398;BME280;2213;49.720;7.296;2023-01-04T08:11:20;98817.22;;;7.65;100.00
4398;BME280;2213;49.720;7.296;2023-01-04T08:13:52;98827.03;;;7.71;100.00
4398;BME280;2213;49.720;7.296;2023-01-04T08:16:25;98830.63;;;7.70;100.00
4398;BME280;2213;49.720;7.296;2023-01-04T08:19:01;98833.66;;;7.65;100.00
4398;BME280;2213;49.720;7.296;2023-01-04T08:21:34;98833.53;;;7.67;100.00
4398;BME280;2213;49.720;7.296;2023-01-04T08:24:05;98820.22;;;7.70;100.00
4398;BME280;2213;49.720;7.296;2023-01-04T08:26:35;98816.78;;;7.69;100.00
4398;BME280;2213;49.720;7.296;2023-01-04T08:29:07;98825.94;;;7.73;100.00
4398;BME280;2213;49.720;7.296;2023-01-04T08:31:37;98829.50;;;7.72;100.00
4398;BME280;2213;49.720;7.296;2023-01-04T08:34:09;98822.06;;;7.77;100.00
4398;BME280;2213;49.720;7.296;2023-01-04T08:36:46;98827.09;;;7.79;100.00
4398;BME280;2213;49.720;7.296;2023-01-04T08:39:16;98830.00;;;7.76;100.00
4398;BME280;2213;49.720;7.296;2023-01-04T08:41:45;98815.22;;;7.76;100.00
4398;BME280;2213;49.720;7.296;2023-01-04T08:44:32;98817.53;;;7.79;100.00
4398;BME280;2213;49.720;7.296;2023-01-04T08:47:02;98823.03;;;7.76;100.00
4398;BME280;2213;49.720;7.296;2023-01-04T08:49:32;98829.72;;;7.79;100.00
4398;BME280;2213;49.720;7.296;2023-01-04T08:52:03;98816.25;;;7.83;100.00
4398;BME280;2213;49.720;7.296;2023-01-04T08:54:33;98816.41;;;7.82;100.00
4398;BME280;2213;49.720;7.296;2023-01-04T08:57:04;98816.25;;;7.83;100.00
4398;BME280;2213;49.720;7.296;2023-01-04T08:59:35;98815.00;;;7.87;100.00
4398;BME280;2213;49.720;7.296;2023-01-04T09:02:19;98808.50;;;7.91;100.00
4398;BME280;2213;49.720;7.296;2023-01-04T09:04:50;98817.94;;;7.92;100.00
4398;BME280;2213;49.720;7.296;2023-01-04T09:07:19;98804.41;;;7.89;100.00
4398;BME280;2213;49.720;7.296;2023-01-04T09:09:48;98785.75;;;7.93;100.00
4398;BME280;2213;49.720;7.296;2023-01-04T09:12:19;98774.06;;;7.97;100.00
4398;BME280;2213;49.720;7.296;2023-01-04T09:14:48;98802.00;;;7.95;100.00
4398;BME280;2213;49.720;7.296;2023-01-04T09:17:18;98782.69;;;7.98;100.00
4398;BME280;2213;49.720;7.296;2023-01-04T09:19:49;98767.84;;;7.98;100.00
4398;BME280;2213;49.720;7.296;2023-01-04T09:22:19;98768.22;;;8.03;100.00
4398;BME280;2213;49.720;7.296;2023-01-04T09:24:48;98774.41;;;8.02;100.00
4398;BME280;2213;49.720;7.296;2023-01-04T09:27:19;98797.69;;;8.04;100.00
4398;BME280;2213;49.720;7.296;2023-01-04T09:29:50;98790.03;;;8.02;100.00
4398;BME280;2213;49.720;7.296;2023-01-04T09:32:20;98783.72;;;8.05;100.00
4398;BME280;2213;49.720;7.296;2023-01-04T09:34:50;98788.63;;;8.08;100.00
4398;BME280;2213;49.720;7.296;2023-01-04T09:37:20;98795.44;;;8.09;100.00
4398;BME280;2213;49.720;7.296;2023-01-04T09:39:51;98780.31;;;8.13;100.00
4398;BME280;2213;49.720;7.296;2023-01-04T09:42:27;98781.31;;;8.12;100.00
4398;BME280;2213;49.720;7.296;2023-01-04T09:45:15;98787.16;;;8.14;100.00
4398;BME280;2213;49.720;7.296;2023-01-04T09:47:54;98794.84;;;8.15;100.00
4398;BME280;2213;49.720;7.296;2023-01-04T09:50:30;98794.53;;;8.18;100.00
4398;BME280;2213;49.720;7.296;2023-01-04T09:53:09;98806.56;;;8.19;100.00
4398;BME280;2213;49.720;7.296;2023-01-04T09:55:45;98804.47;;;8.23;100.00
4398;BME280;2213;49.720;7.296;2023-01-04T09:58:25;98806.94;;;8.24;100.00
4398;BME280;2213;49.720;7.296;2023-01-04T10:01:01;98803.09;;;8.28;100.00
4398;BME280;2213;49.720;7.296;2023-01-04T10:03:33;98794.31;;;8.29;100.00
4398;BME280;2213;49.720;7.296;2023-01-04T10:06:09;98802.13;;;8.29;100.00
4398;BME280;2213;49.720;7.296;2023-01-04T10:08:42;98818.28;;;8.33;100.00
4398;BME280;2213;49.720;7.296;2023-01-04T10:11:28;98814.22;;;8.38;100.00
4398;BME280;2213;49.720;7.296;2023-01-04T10:14:29;98819.28;;;8.40;100.00
4398;BME280;2213;49.720;7.296;2023-01-04T10:17:25;98809.84;;;8.39;100.00
4398;BME280;2213;49.720;7.296;2023-01-04T10:20:59;98798.13;;;8.43;100.00
4398;BME280;2213;49.720;7.296;2023-01-04T10:24:36;98791.94;;;8.44;100.00
4398;BME280;2213;49.720;7.296;2023-01-04T10:27:23;98787.84;;;8.41;100.00
4398;BME280;2213;49.720;7.296;2023-01-04T10:30:16;98791.13;;;8.43;100.00
4398;BME280;2213;49.720;7.296;2023-01-04T10:33:00;98789.31;;;8.44;100.00
4398;BME280;2213;49.720;7.296;2023-01-04T10:35:34;98783.66;;;8.48;100.00
4398;BME280;2213;49.720;7.296;2023-01-04T10:38:15;98781.38;;;8.45;100.00
4398;BME280;2213;49.720;7.296;2023-01-04T10:40:47;98778.59;;;8.47;100.00
4398;BME280;2213;49.720;7.296;2023-01-04T10:43:53;98763.31;;;8.52;100.00
4398;BME280;2213;49.720;7.296;2023-01-04T10:46:48;98767.25;;;8.56;100.00
4398;BME280;2213;49.720;7.296;2023-01-04T10:49:32;98761.84;;;8.57;100.00
4398;BME280;2213;49.720;7.296;2023-01-04T10:52:09;98773.78;;;8.60;100.00
4398;BME280;2213;49.720;7.296;2023-01-04T10:54:44;98767.44;;;8.63;100.00
4398;BME280;2213;49.720;7.296;2023-01-04T10:57:22;98771.00;;;8.62;100.00
4398;BME280;2213;49.720;7.296;2023-01-04T11:00:00;98764.19;;;8.61;100.00
4398;BME280;2213;49.720;7.296;2023-01-04T11:02:41;98766.63;;;8.62;100.00
4398;BME280;2213;49.720;7.296;2023-01-04T11:05:21;98767.56;;;8.61;100.00
4398;BME280;2213;49.720;7.296;2023-01-04T11:07:58;98770.69;;;8.65;100.00
4398;BME280;2213;49.720;7.296;2023-01-04T11:10:36;98760.25;;;8.65;100.00
4398;BME280;2213;49.720;7.296;2023-01-04T11:13:09;98758.66;;;8.64;100.00
4398;BME280;2213;49.720;7.296;2023-01-04T11:15:39;98751.16;;;8.69;100.00
4398;BME280;2213;49.720;7.296;2023-01-04T11:18:11;98752.94;;;8.68;100.00
4398;BME280;2213;49.720;7.296;2023-01-04T11:20:42;98739.13;;;8.68;100.00
4398;BME280;2213;49.720;7.296;2023-01-04T11:23:14;98744.00;;;8.71;100.00
4398;BME280;2213;49.720;7.296;2023-01-04T11:25:50;98732.44;;;8.73;100.00
4398;BME280;2213;49.720;7.296;2023-01-04T11:28:27;98727.38;;;8.72;100.00
4398;BME280;2213;49.720;7.296;2023-01-04T11:31:11;98723.47;;;8.68;100.00
4398;BME280;2213;49.720;7.296;2023-01-04T11:33:56;98711.09;;;8.70;100.00
4398;BME280;2213;49.720;7.296;2023-01-04T11:36:36;98715.34;;;8.71;100.00
4398;BME280;2213;49.720;7.296;2023-01-04T11:39:17;98725.44;;;8.74;100.00
4398;BME280;2213;49.720;7.296;2023-01-04T11:41:58;98723.34;;;8.77;100.00
4398;BME280;2213;49.720;7.296;2023-01-04T11:44:32;98721.22;;;8.81;100.00
4398;BME280;2213;49.720;7.296;2023-01-04T11:47:07;98722.03;;;8.81;100.00
4398;BME280;2213;49.720;7.296;2023-01-04T11:49:43;98717.94;;;8.79;100.00
4398;BME280;2213;49.720;7.296;2023-01-04T11:52:31;98711.44;;;8.83;100.00
4398;BME280;2213;49.720;7.296;2023-01-04T11:55:21;98716.66;;;8.83;100.00
4398;BME280;2213;49.720;7.296;2023-01-04T11:58:06;98714.22;;;8.81;100.00
4398;BME280;2213;49.720;7.296;2023-01-04T12:00:36;98713.56;;;8.87;100.00
4398;BME280;2213;49.720;7.296;2023-01-04T12:03:14;98697.09;;;8.87;100.00
4398;BME280;2213;49.720;7.296;2023-01-04T12:05:44;98700.34;;;8.89;100.00
4398;BME280;2213;49.720;7.296;2023-01-04T12:08:27;98691.91;;;8.87;100.00
4398;BME280;2213;49.720;7.296;2023-01-04T12:10:59;98709.19;;;8.88;100.00
4398;BME280;2213;49.720;7.296;2023-01-04T12:13:32;98706.56;;;8.88;100.00
4398;BME280;2213;49.720;7.296;2023-01-04T12:16:13;98699.06;;;8.93;100.00
4398;BME280;2213;49.720;7.296;2023-01-04T12:18:48;98690.91;;;8.96;100.00
4398;BME280;2213;49.720;7.296;2023-01-04T12:21:21;98680.50;;;8.96;100.00
4398;BME280;2213;49.720;7.296;2023-01-04T12:23:54;98677.72;;;8.97;100.00
4398;BME280;2213;49.720;7.296;2023-01-04T12:26:23;98667.13;;;8.99;100.00
4398;BME280;2213;49.720;7.296;2023-01-04T12:29:41;98669.44;;;9.02;100.00
4398;BME280;2213;49.720;7.296;2023-01-04T12:32:45;98672.69;;;9.04;100.00
4398;BME280;2213;49.720;7.296;2023-01-04T12:36:00;98668.28;;;9.04;100.00
4398;BME280;2213;49.720;7.296;2023-01-04T12:39:02;98657.84;;;9.04;100.00
4398;BME280;2213;49.720;7.296;2023-01-04T12:42:15;98667.47;;;9.04;100.00
4398;BME280;2213;49.720;7.296;2023-01-04T12:45:12;98662.25;;;9.04;100.00
4398;BME280;2213;49.720;7.296;2023-01-04T12:47:47;98659.16;;;9.08;100.00
4398;BME280;2213;49.720;7.296;2023-01-04T12:51:22;98661.59;;;9.10;100.00
4398;BME280;2213;49.720;7.296;2023-01-04T12:54:07;98660.63;;;9.11;100.00
4398;BME280;2213;49.720;7.296;2023-01-04T12:57:10;98663.88;;;9.13;100.00
4398;BME280;2213;49.720;7.296;2023-01-04T12:59:55;98656.72;;;9.15;100.00
4398;BME280;2213;49.720;7.296;2023-01-04T13:02:27;98660.16;;;9.16;100.00
4398;BME280;2213;49.720;7.296;2023-01-04T13:04:59;98649.38;;;9.19;100.00
4398;BME280;2213;49.720;7.296;2023-01-04T13:07:51;98638.75;;;9.20;100.00
4398;BME280;2213;49.720;7.296;2023-01-04T13:10:34;98633.53;;;9.20;100.00
4398;BME280;2213;49.720;7.296;2023-01-04T13:13:28;98628.19;;;9.22;100.00
4398;BME280;2213;49.720;7.296;2023-01-04T13:16:14;98633.06;;;9.25;100.00
4398;BME280;2213;49.720;7.296;2023-01-04T13:18:49;98628.66;;;9.25;100.00
4398;BME280;2213;49.720;7.296;2023-01-04T13:21:28;98627.84;;;9.25;100.00
4398;BME280;2213;49.720;7.296;2023-01-04T13:24:02;98620.00;;;9.25;100.00
4398;BME280;2213;49.720;7.296;2023-01-04T13:26:39;98619.88;;;9.26;100.00
4398;BME280;2213;49.720;7.296;2023-01-04T13:29:17;98614.31;;;9.29;100.00
4398;BME280;2213;49.720;7.296;2023-01-04T13:31:58;98615.91;;;9.30;100.00
4398;BME280;2213;49.720;7.296;2023-01-04T13:34:31;98606.31;;;9.31;100.00
4398;BME280;2213;49.720;7.296;2023-01-04T13:43:15;98604.34;;;9.33;100.00
4398;BME280;2213;49.720;7.296;2023-01-04T13:46:12;98601.41;;;9.36;100.00
4398;BME280;2213;49.720;7.296;2023-01-04T13:48:45;98611.66;;;9.37;100.00
4398;BME280;2213;49.720;7.296;2023-01-04T13:51:17;98602.88;;;9.38;100.00
4398;BME280;2213;49.720;7.296;2023-01-04T13:53:57;98608.09;;;9.38;100.00
4398;BME280;2213;49.720;7.296;2023-01-04T13:56:29;98593.25;;;9.39;100.00
4398;BME280;2213;49.720;7.296;2023-01-04T13:59:00;98590.50;;;9.40;100.00
4398;BME280;2213;49.720;7.296;2023-01-04T14:01:31;98592.91;;;9.42;100.00
4398;BME280;2213;49.720;7.296;2023-01-04T14:04:05;98598.81;;;9.44;100.00
4398;BME280;2213;49.720;7.296;2023-01-04T14:06:42;98602.19;;;9.44;100.00
4398;BME280;2213;49.720;7.296;2023-01-04T14:09:16;98593.41;;;9.45;100.00
4398;BME280;2213;49.720;7.296;2023-01-04T14:11:50;98594.84;;;9.48;100.00
4398;BME280;2213;49.720;7.296;2023-01-04T14:14:53;98587.84;;;9.48;100.00
4398;BME280;2213;49.720;7.296;2023-01-04T14:17:32;98577.06;;;9.51;100.00
4398;BME280;2213;49.720;7.296;2023-01-04T14:20:02;98574.78;;;9.48;100.00
4398;BME280;2213;49.720;7.296;2023-01-04T14:22:51;98572.66;;;9.52;100.00